Airfield :
LOGIN :

Register | Disclaimer

   EN    FR    IT 

 










Legend :    VFR   Marginal VFR   IFR   Intensive IFR   Very Intensive IFR
Visi :
Ceiling :
>= 8 km
>= 3000ft
5 to 8 km
1000 to 3000 ft
1500m to 5 km
500 to 1000 ft
800 to 1500m
200 to 500 ft
< 800m
< 200 ft
Symbols :   Thunderstorms  Fog  Heavy snow  Heavy precipitations  Wind > 20 kt
SIGMETs :     Misc.  Thunderstorms  Icing  Turbulence  Mountain Waves  Volcanic Ashes






- Airport Elevation : 2776 ft
- IATA code : VLL


LEVD - Valladolid

CURRENT METAR :
  • 072030Z AUTO 29008KT 240V320 9999 SCT039 SCT047 13/08 Q1024

EXPIRED METARs :
  • 072000Z AUTO 25008KT 210V290 9999 FEW045 13/10 Q1023
  • 071930Z AUTO 00000KT CAVOK 13/10 Q1023
  • 071900Z AUTO 16008KT CAVOK 13/11 Q1022
  • 071830Z AUTO 20009KT 160V240 9999 -RA FEW023 SCT046 14/11 Q1022
  • 071800Z AUTO 33005KT CAVOK 16/11 Q1022

TAF TAF LEVD
Valid from the 07 at 18:00 until the 08 at 18:00 UTC


071700Z 0718/0818 VRB05KT 9999 SCT030 TX19/0815Z TN05/0806Z
PROB30
TEMPO 0718/0719 3000 SHRA SCT030TCU
TEMPO 0722/0810 3000 BR BKN005
PROB40
TEMPO 0802/0809 0400 FG VV001
PROB30
TEMPO 0813/0818 FEW030TCU



MET'MAP, your aeronautical weather chart ! - Copyright ORBIFLY December 2007 - Disclaimer

ORBIFLY MET'MAP TEAM :

Programming & Development : Alexandra Zaïnal
Concept & original design : Baudouin d'Aumeries
Assistance for programming : Marc-Olivier Méhu
Technical & hardware support : Manuel Goepfert

Contact : metmap@orbifly.com




SOURCES & CREDITS :

   NOAA